createdAt,value
2023-04-09T00:00:10.812Z,101163.72
2023-04-09T00:03:13.671Z,101163.78
2023-04-09T00:06:16.446Z,101159.38
2023-04-09T00:09:20.784Z,101168.34
2023-04-09T00:12:24.812Z,101167.47
2023-04-09T00:15:31.242Z,101162.13
2023-04-09T00:18:34.465Z,101161.31
2023-04-09T00:21:37.171Z,101149.69
2023-04-09T00:24:39.800Z,101155.13
2023-04-09T00:27:43.856Z,101158.69
2023-04-09T00:30:46.569Z,101159.66
2023-04-09T00:33:49.365Z,101155.19
2023-04-09T00:36:51.993Z,101157.91
2023-04-09T00:39:54.691Z,101152.56
2023-04-09T00:42:58.830Z,101153.50
2023-04-09T00:46:01.891Z,101153.56
2023-04-09T00:49:06.903Z,101150.03
2023-04-09T00:52:09.576Z,101150.03
2023-04-09T00:55:13.671Z,101160.78
2023-04-09T00:58:17.917Z,101165.25
2023-04-09T01:01:21.222Z,101162.59
2023-04-09T01:04:25.002Z,101167.06
2023-04-09T01:07:40.303Z,101153.72
2023-04-09T01:10:45.893Z,101155.50
2023-04-09T01:13:56.460Z,101158.19
2023-04-09T01:17:05.830Z,101159.13
2023-04-09T01:20:13.113Z,101160.03
2023-04-09T01:23:20.343Z,101159.16
2023-04-09T01:26:37.854Z,101146.69
2023-04-09T01:29:47.547Z,101150.28
2023-04-09T01:32:52.200Z,101156.53
2023-04-09T01:35:55.922Z,101162.81
2023-04-09T01:38:58.793Z,101158.34
2023-04-09T01:42:04.233Z,101153.88
2023-04-09T01:45:11.734Z,101165.50
2023-04-09T01:48:16.022Z,101166.41
2023-04-09T01:51:19.460Z,101167.28
2023-04-09T01:54:22.141Z,101160.19
2023-04-09T01:57:24.836Z,101171.78
2023-04-09T02:00:36.219Z,101164.69
2023-04-09T02:03:45.543Z,101172.72
2023-04-09T02:06:54.421Z,101163.78
2023-04-09T02:10:00.496Z,101168.28
2023-04-09T02:13:06.254Z,101168.28
2023-04-09T02:16:12.688Z,101166.47
2023-04-09T02:19:15.646Z,101170.06
2023-04-09T02:22:18.534Z,101163.81
2023-04-09T02:25:24.363Z,101164.69
2023-04-09T02:28:27.037Z,101165.59
2023-04-09T02:31:32.092Z,101162.91
2023-04-09T02:34:35.157Z,101165.59
2023-04-09T02:37:37.861Z,101166.50
2023-04-09T02:40:41.240Z,101162.88
2023-04-09T02:43:43.914Z,101162.00
2023-04-09T02:46:49.035Z,101161.09
2023-04-09T02:49:51.969Z,101160.22
2023-04-09T02:52:54.814Z,101161.97
2023-04-09T02:55:57.493Z,101160.16
2023-04-09T02:59:00.194Z,101165.50
2023-04-09T03:02:04.358Z,101156.53
2023-04-09T03:05:08.128Z,101153.84
2023-04-09T03:08:11.278Z,101143.97
2023-04-09T03:11:14.177Z,101139.47
2023-04-09T03:14:17.121Z,101142.09
2023-04-09T03:17:21.237Z,101147.44
2023-04-09T03:20:24.047Z,101136.69
2023-04-09T03:23:27.139Z,101137.53
2023-04-09T03:26:36.125Z,101126.75
2023-04-09T03:29:38.834Z,101130.31
2023-04-09T03:32:43.118Z,101134.72
2023-04-09T03:35:46.115Z,101130.25
2023-04-09T03:38:48.950Z,101132.00
2023-04-09T03:41:51.614Z,101132.88
2023-04-09T03:44:54.928Z,101131.03
2023-04-09T03:47:58.971Z,101137.28
2023-04-09T03:51:09.240Z,101133.69
2023-04-09T03:54:11.913Z,101131.84
2023-04-09T03:57:14.648Z,101131.84
2023-04-09T04:00:17.468Z,101132.69
2023-04-09T04:03:21.556Z,101137.16
2023-04-09T04:06:24.318Z,101137.09
2023-04-09T04:09:26.984Z,101135.31
2023-04-09T04:12:29.611Z,101128.13
2023-04-09T04:15:32.259Z,101132.63
2023-04-09T04:18:36.360Z,101131.72
2023-04-09T04:21:39.055Z,101132.56
2023-04-09T04:24:41.766Z,101145.06
2023-04-09T04:27:44.566Z,101143.28
2023-04-09T04:30:47.242Z,101145.06
2023-04-09T04:33:51.264Z,101151.31
2023-04-09T04:36:53.990Z,101142.38
2023-04-09T04:39:56.698Z,101146.88
2023-04-09T04:42:59.386Z,101143.34
2023-04-09T04:46:02.249Z,101151.34
2023-04-09T04:49:06.453Z,101150.44
2023-04-09T04:52:09.172Z,101152.16
2023-04-09T04:55:11.992Z,101150.34
2023-04-09T04:58:14.690Z,101153.00
2023-04-09T05:01:17.852Z,101150.28
2023-04-09T05:04:22.276Z,101148.44
2023-04-09T05:07:24.988Z,101153.81
2023-04-09T05:10:27.672Z,101161.84
2023-04-09T05:13:30.354Z,101148.34
2023-04-09T05:16:33.328Z,101153.69
2023-04-09T05:19:37.415Z,101154.53
2023-04-09T05:22:40.137Z,101153.66
2023-04-09T05:25:42.898Z,101161.66
2023-04-09T05:28:45.550Z,101158.94
2023-04-09T05:31:48.296Z,101158.03
2023-04-09T05:34:52.296Z,101158.03
2023-04-09T05:37:55.047Z,101157.97
2023-04-09T05:40:57.767Z,101158.84
2023-04-09T05:44:01.068Z,101158.88
2023-04-09T05:47:03.784Z,101157.06
2023-04-09T05:50:08.763Z,101157.97
2023-04-09T05:53:11.409Z,101159.75
2023-04-09T05:56:15.564Z,101152.53
2023-04-09T05:59:18.483Z,101152.53
2023-04-09T06:02:25.891Z,101150.69
2023-04-09T06:05:30.412Z,101152.31
2023-04-09T06:08:33.188Z,101150.53
2023-04-09T06:11:36.192Z,101154.00
2023-04-09T06:14:38.882Z,101152.09
2023-04-09T06:17:41.653Z,101153.78
2023-04-09T06:20:45.663Z,101161.78
2023-04-09T06:23:48.361Z,101161.72
2023-04-09T06:26:51.452Z,101164.28
2023-04-09T06:29:54.140Z,101161.41
2023-04-09T06:32:56.917Z,101166.53
2023-04-09T06:36:01.440Z,101154.63
2023-04-09T06:39:04.553Z,101157.97
2023-04-09T06:42:07.270Z,101154.13
2023-04-09T06:45:10.712Z,101160.22
2023-04-09T06:48:13.400Z,101161.00
2023-04-09T06:51:17.480Z,101164.47
2023-04-09T06:54:20.332Z,101165.34
2023-04-09T06:57:23.389Z,101160.72
2023-04-09T07:00:26.178Z,101161.44
2023-04-09T07:03:29.947Z,101171.97
2023-04-09T07:06:34.240Z,101174.47
2023-04-09T07:09:36.956Z,101177.00
2023-04-09T07:12:39.691Z,101170.47
2023-04-09T07:15:42.670Z,101172.94
2023-04-09T07:18:46.098Z,101175.59
2023-04-09T07:21:51.647Z,101175.50
2023-04-09T07:24:55.086Z,101169.91
2023-04-09T07:27:58.024Z,101170.47
2023-04-09T07:31:03.511Z,101166.47
2023-04-09T07:34:06.300Z,101164.97
2023-04-09T07:37:10.473Z,101162.22
2023-04-09T07:40:13.569Z,101161.91
2023-04-09T07:43:16.944Z,101135.81
2023-04-09T07:46:20.811Z,101142.81
2023-04-09T07:49:23.687Z,101139.09
2023-04-09T07:52:27.827Z,101143.41
2023-04-09T07:55:30.581Z,101141.47
2023-04-09T07:58:33.318Z,101127.84
2023-04-09T08:01:36.010Z,101137.06
2023-04-09T08:04:39.100Z,101131.03
2023-04-09T08:07:43.176Z,101127.97
2023-04-09T08:10:45.885Z,101133.69
2023-04-09T08:13:48.604Z,101131.72
2023-04-09T08:16:52.471Z,101143.28
2023-04-09T08:19:55.495Z,101136.94
2023-04-09T08:23:00.422Z,101135.69
2023-04-09T08:26:03.395Z,101138.63
2023-04-09T08:29:06.880Z,101135.16
2023-04-09T08:32:09.725Z,101140.41
2023-04-09T08:35:13.223Z,101138.09
2023-04-09T08:38:17.253Z,101147.81
2023-04-09T08:41:20.933Z,101138.81
2023-04-09T08:44:27.083Z,101141.25
2023-04-09T08:47:30.103Z,101133.59
2023-04-09T08:50:33.867Z,101144.13
2023-04-09T08:53:39.518Z,101136.66
2023-04-09T08:56:42.422Z,101149.38
2023-04-09T08:59:45.103Z,101136.00
2023-04-09T09:03:04.766Z,101124.88
2023-04-09T09:06:22.391Z,101123.19
2023-04-09T09:09:26.870Z,101124.63
2023-04-09T09:12:38.213Z,101094.34
2023-04-09T09:15:41.303Z,101096.47
2023-04-09T09:18:45.322Z,101099.81
2023-04-09T09:21:56.703Z,101104.56
2023-04-09T09:25:01.010Z,101107.72
2023-04-09T09:28:10.041Z,101102.59
2023-04-09T09:31:14.064Z,101081.16
2023-04-09T09:34:17.853Z,101085.78
2023-04-09T09:37:27.969Z,101083.59
2023-04-09T09:40:32.061Z,101092.88
2023-04-09T09:43:41.496Z,101100.22
2023-04-09T09:46:44.297Z,101094.69
2023-04-09T09:49:49.279Z,101087.13
2023-04-09T09:52:55.544Z,101079.84
2023-04-09T09:56:01.745Z,101087.94
2023-04-09T09:59:08.838Z,101084.66
2023-04-09T10:02:19.658Z,101076.34
2023-04-09T10:05:26.969Z,101074.78
2023-04-09T10:08:33.416Z,101071.97
2023-04-09T10:11:38.862Z,101073.31
2023-04-09T10:14:42.576Z,101077.88
2023-04-09T10:17:46.218Z,101077.75
2023-04-09T10:20:56.207Z,101070.59
2023-04-09T10:23:59.861Z,101061.41
2023-04-09T10:27:15.757Z,101066.91
2023-04-09T10:30:35.967Z,101064.69
2023-04-09T10:33:39.671Z,101061.25
2023-04-09T10:36:44.786Z,101060.34
2023-04-09T10:39:49.892Z,101061.69
2023-04-09T10:42:55.380Z,101041.22
2023-04-09T10:45:59.221Z,101050.19
2023-04-09T10:49:17.879Z,101029.88
2023-04-09T10:52:31.315Z,101039.13
2023-04-09T10:55:37.243Z,101049.25
2023-04-09T10:58:41.480Z,101038.75
2023-04-09T11:01:53.645Z,101032.13
2023-04-09T11:05:07.971Z,101029.75
2023-04-09T11:08:12.601Z,101031.97
2023-04-09T11:11:16.566Z,101020.63
2023-04-09T11:14:22.127Z,101007.31
2023-04-09T11:17:24.856Z,101021.28
2023-04-09T11:20:27.769Z,101007.94
2023-04-09T11:23:30.639Z,101011.47
2023-04-09T11:26:37.415Z,100994.63
2023-04-09T11:29:42.421Z,101005.88
2023-04-09T11:32:45.490Z,101000.03
2023-04-09T11:35:48.431Z,100989.25
2023-04-09T11:38:51.562Z,100980.25
2023-04-09T11:41:54.416Z,100989.69
2023-04-09T11:44:59.002Z,100987.78
2023-04-09T11:48:03.654Z,100996.53
2023-04-09T11:51:06.665Z,100993.34
2023-04-09T11:54:09.877Z,100994.81
2023-04-09T11:57:12.520Z,100997.22
2023-04-09T12:00:18.438Z,100999.16
2023-04-09T12:03:29.808Z,100992.22
2023-04-09T12:06:33.139Z,100980.41
2023-04-09T12:09:47.074Z,100981.00
2023-04-09T12:12:49.879Z,100976.59
2023-04-09T12:15:58.722Z,100972.81
2023-04-09T12:19:02.834Z,100980.00
2023-04-09T12:22:05.619Z,100976.66
2023-04-09T12:25:09.399Z,100947.19
2023-04-09T12:28:13.740Z,100957.94
2023-04-09T12:31:17.811Z,100965.50
2023-04-09T12:34:20.715Z,100976.41
2023-04-09T12:37:23.582Z,100966.63
2023-04-09T12:40:26.406Z,100967.88
2023-04-09T12:43:29.644Z,100965.19
2023-04-09T12:46:33.798Z,100963.69
2023-04-09T12:49:36.712Z,100946.25
2023-04-09T12:52:39.635Z,100950.41
2023-04-09T12:55:42.972Z,100953.75
2023-04-09T12:58:45.747Z,100957.91
2023-04-09T13:01:49.855Z,100953.38
2023-04-09T13:04:53.124Z,100954.56
2023-04-09T13:07:55.875Z,100942.47
2023-04-09T13:10:58.611Z,100940.25
2023-04-09T13:14:01.242Z,100939.38
2023-04-09T13:17:05.561Z,100934.97
2023-04-09T13:20:09.486Z,100926.53
2023-04-09T13:23:12.148Z,100920.69
2023-04-09T13:26:14.896Z,100913.03
2023-04-09T13:29:17.904Z,100912.38
2023-04-09T13:32:23.331Z,100903.16
2023-04-09T13:35:26.181Z,100894.13
2023-04-09T13:38:28.966Z,100905.78
2023-04-09T13:41:33.036Z,100908.88
2023-04-09T13:44:36.162Z,100913.66
2023-04-09T13:47:40.262Z,100912.69
2023-04-09T13:50:43.057Z,100894.50
2023-04-09T13:53:46.053Z,100901.25
2023-04-09T13:56:50.032Z,100900.47
2023-04-09T13:59:52.680Z,100894.78
2023-04-09T14:02:56.826Z,100890.97
2023-04-09T14:05:59.518Z,100894.78
2023-04-09T14:09:02.257Z,100889.31
2023-04-09T14:12:05.047Z,100883.06
2023-04-09T14:15:08.644Z,100881.09
2023-04-09T14:18:12.721Z,100877.47
2023-04-09T14:21:15.588Z,100884.38
2023-04-09T14:24:20.085Z,100883.00
2023-04-09T14:27:22.763Z,100883.38
2023-04-09T14:30:39.468Z,100875.97
2023-04-09T14:33:43.490Z,100879.53
2023-04-09T14:36:46.187Z,100873.88
2023-04-09T14:39:48.933Z,100875.00
2023-04-09T14:42:51.643Z,100879.81
2023-04-09T14:45:55.123Z,100868.31
2023-04-09T14:48:59.151Z,100851.34
2023-04-09T14:52:01.907Z,100868.81
2023-04-09T14:55:05.155Z,100872.63
2023-04-09T14:58:08.238Z,100869.47
2023-04-09T15:01:11.125Z,100872.25
2023-04-09T15:04:15.758Z,100865.72
2023-04-09T15:07:18.518Z,100854.94
2023-04-09T15:10:21.399Z,100865.81
2023-04-09T15:13:24.318Z,100862.00
2023-04-09T15:16:29.026Z,100863.56
2023-04-09T15:19:33.116Z,100866.31
2023-04-09T15:22:35.914Z,100863.75
2023-04-09T15:25:38.696Z,100852.03
2023-04-09T15:28:41.402Z,100862.78
2023-04-09T15:31:44.103Z,100864.91
2023-04-09T15:34:48.325Z,100855.47
2023-04-09T15:37:50.989Z,100856.13
2023-04-09T15:40:54.800Z,100855.47
2023-04-09T15:43:57.472Z,100854.50
2023-04-09T15:47:00.386Z,100854.25
2023-04-09T15:50:04.994Z,100841.47
2023-04-09T15:53:07.723Z,100846.88
2023-04-09T15:56:15.190Z,100849.44
2023-04-09T15:59:18.930Z,100844.56
2023-04-09T16:02:22.664Z,100831.94
2023-04-09T16:05:28.175Z,100833.72
2023-04-09T16:08:31.827Z,100834.53
2023-04-09T16:11:35.942Z,100837.53
2023-04-09T16:14:39.220Z,100849.09
2023-04-09T16:17:41.927Z,100842.25
2023-04-09T16:20:46.515Z,100849.44
2023-04-09T16:23:49.349Z,100843.53
2023-04-09T16:26:52.115Z,100855.34
2023-04-09T16:29:55.345Z,100847.63
2023-04-09T16:32:58.506Z,100853.97
2023-04-09T16:36:02.874Z,100859.63
2023-04-09T16:39:06.291Z,100861.22
2023-04-09T16:42:09.548Z,100853.47
2023-04-09T16:45:12.569Z,100858.75
2023-04-09T16:48:15.785Z,100864.88
2023-04-09T16:51:20.723Z,100862.06
2023-04-09T16:54:23.472Z,100844.44
2023-04-09T16:57:26.451Z,100852.16
2023-04-09T17:00:29.551Z,100851.59
2023-04-09T17:03:32.393Z,100852.97
2023-04-09T17:06:36.467Z,100862.59
2023-04-09T17:09:39.236Z,100845.28
2023-04-09T17:12:42.056Z,100859.44
2023-04-09T17:15:44.793Z,100862.47
2023-04-09T17:18:47.658Z,100858.78
2023-04-09T17:21:51.779Z,100863.59
2023-04-09T17:24:54.506Z,100865.09
2023-04-09T17:27:57.347Z,100873.91
2023-04-09T17:31:00.172Z,100879.28
2023-04-09T17:34:03.563Z,100881.06
2023-04-09T17:37:07.632Z,100886.00
2023-04-09T17:40:12.483Z,100885.41
2023-04-09T17:46:19.309Z,100890.56
2023-04-09T17:49:22.681Z,100898.13
2023-04-09T17:52:26.779Z,100900.47
2023-04-09T17:55:30.650Z,100885.94
2023-04-09T17:58:34.825Z,100897.72
2023-04-09T18:01:37.993Z,100895.00
2023-04-09T18:04:41.777Z,100893.06
2023-04-09T18:07:46.087Z,100898.56
2023-04-09T18:11:01.672Z,100907.44
2023-04-09T18:14:14.113Z,100920.66
2023-04-09T18:17:17.920Z,100929.28
2023-04-09T18:20:21.232Z,100944.28
2023-04-09T18:23:26.955Z,100939.44
2023-04-09T18:26:29.862Z,100940.19
2023-04-09T18:29:32.749Z,100944.59
2023-04-09T18:32:35.498Z,100944.16
2023-04-09T18:35:38.453Z,100957.31
2023-04-09T18:38:42.532Z,100954.19
2023-04-09T18:41:45.688Z,100956.44
2023-04-09T18:44:48.804Z,100963.13
2023-04-09T18:47:52.336Z,100965.25
2023-04-09T18:50:55.171Z,100982.75
2023-04-09T18:54:00.622Z,100981.34
2023-04-09T18:57:04.212Z,100982.50
2023-04-09T19:00:08.569Z,100987.28
2023-04-09T19:03:12.201Z,100994.72
2023-04-09T19:06:17.900Z,100996.63
2023-04-09T19:09:22.554Z,101003.41
2023-04-09T19:12:27.024Z,100994.72
2023-04-09T19:15:30.531Z,101003.28
2023-04-09T19:18:34.129Z,101004.53
2023-04-09T19:21:36.907Z,101012.84
2023-04-09T19:24:40.967Z,100996.22
2023-04-09T19:27:43.784Z,101020.53
2023-04-09T19:30:46.460Z,101014.50
2023-04-09T19:33:49.232Z,101017.38
2023-04-09T19:36:51.969Z,101019.41
2023-04-09T19:39:56.306Z,101022.31
2023-04-09T19:42:59.247Z,101026.09
2023-04-09T19:46:05.953Z,101027.25
2023-04-09T19:49:08.597Z,101032.88
2023-04-09T19:52:11.350Z,101028.50
2023-04-09T19:55:15.519Z,101024.31
2023-04-09T19:58:18.528Z,101015.63
2023-04-09T20:01:21.346Z,101023.69
2023-04-09T20:04:24.786Z,101033.78
2023-04-09T20:07:28.070Z,101036.03
2023-04-09T20:10:32.186Z,101043.25
2023-04-09T20:13:34.875Z,101035.41
2023-04-09T20:16:37.635Z,101041.13
2023-04-09T20:19:40.303Z,101040.38
2023-04-09T20:22:46.503Z,101041.34
2023-04-09T20:25:54.733Z,101041.53
2023-04-09T20:28:57.492Z,101045.19
2023-04-09T20:32:00.445Z,101048.09
2023-04-09T20:35:03.660Z,101041.94
2023-04-09T20:38:06.355Z,101042.00
2023-04-09T20:41:10.499Z,101041.28
2023-04-09T20:44:13.217Z,101036.03
2023-04-09T20:47:16.398Z,101039.69
2023-04-09T20:50:19.514Z,101042.38
2023-04-09T20:53:24.273Z,101036.34
2023-04-09T20:56:29.852Z,101037.47
2023-04-09T20:59:32.591Z,101039.31
2023-04-09T21:02:35.415Z,101050.13
2023-04-09T21:05:38.277Z,101041.25
2023-04-09T21:08:42.789Z,101041.31
2023-04-09T21:11:46.907Z,101046.81
2023-04-09T21:14:49.980Z,101042.41
2023-04-09T21:17:52.784Z,101049.72
2023-04-09T21:20:55.546Z,101048.06
2023-04-09T21:23:58.417Z,101041.03
2023-04-09T21:27:06.779Z,101047.34
2023-04-09T21:30:10.436Z,101043.00
2023-04-09T21:33:13.200Z,101045.72
2023-04-09T21:36:16.058Z,101053.06
2023-04-09T21:39:18.798Z,101048.75
2023-04-09T21:42:22.946Z,101053.28
2023-04-09T21:45:25.831Z,101055.31
2023-04-09T21:48:30.594Z,101058.03
2023-04-09T21:51:33.586Z,101052.84
2023-04-09T21:54:36.259Z,101053.75
2023-04-09T21:57:40.604Z,101044.88
2023-04-09T22:00:43.304Z,101053.06
2023-04-09T22:03:46.763Z,101052.22
2023-04-09T22:06:49.539Z,101050.56
2023-04-09T22:09:55.075Z,101045.34
2023-04-09T22:12:59.126Z,101049.91
2023-04-09T22:16:01.860Z,101042.84
2023-04-09T22:19:04.835Z,101042.84
2023-04-09T22:22:09.024Z,101046.44
2023-04-09T22:25:12.383Z,101051.03
2023-04-09T22:28:16.568Z,101051.06
2023-04-09T22:31:19.997Z,101043.94
2023-04-09T22:34:23.047Z,101052.09
2023-04-09T22:37:28.773Z,101049.31
2023-04-09T22:40:31.435Z,101059.34
2023-04-09T22:43:36.176Z,101058.50
2023-04-09T22:46:38.958Z,101071.09
2023-04-09T22:49:43.821Z,101072.97
2023-04-09T22:52:46.708Z,101071.22
2023-04-09T22:55:51.601Z,101069.50
2023-04-09T22:58:55.895Z,101078.53
2023-04-09T23:01:59.260Z,101069.63
2023-04-09T23:05:02.060Z,101062.47
2023-04-09T23:08:05.145Z,101067.84
2023-04-09T23:11:07.922Z,101065.25
2023-04-09T23:14:12.110Z,101065.31
2023-04-09T23:17:14.810Z,101082.41
2023-04-09T23:20:17.957Z,101072.56
2023-04-09T23:23:20.570Z,101079.78
2023-04-09T23:26:23.242Z,101082.53
2023-04-09T23:29:27.333Z,101079.03
2023-04-09T23:32:30.111Z,101076.38
2023-04-09T23:35:33.202Z,101076.38
2023-04-09T23:38:36.035Z,101079.13
2023-04-09T23:41:38.940Z,101072.88
2023-04-09T23:44:43.985Z,101072.06
2023-04-09T23:47:46.749Z,101064.81
2023-04-09T23:50:49.546Z,101057.72
2023-04-09T23:53:53.779Z,101053.34
2023-04-09T23:56:57.662Z,101056.09
